Погода Пирожокна неделю

Ростовская область, Россия

22 - 28 мая
  • 22мая
    Сегодня
    +11°
    +29°
    Ясно и безоблачно
    ВремяПогодаТемператураВлажностьДавлениеВетер, м/сВероятность осадков
    00:00Облачно с прояснениями+16°C49 %762 мм1.8 м/с2 %
    03:00Ясно и безоблачно+12°C61 %762 мм1.5 м/с2 %
    06:00Практически безоблачно+14°C59 %762 мм1.1 м/с2 %
    09:00Практически безоблачно+23°C39 %762 мм0.8 м/с2 %
    12:00Ясно и безоблачно+27°C23 %762 мм2.8 м/с2 %
    15:00Ясно и безоблачно+28°C22 %761 мм3.2 м/с2 %
    18:00Ясно и безоблачно+27°C27 %760 мм2.7 м/с2 %
    21:00Ясно и безоблачно+18°C40 %760 мм2.4 м/с2 %
  • 23мая
    Четверг
    +15°
    +29°
    Ясно и безоблачно
    ВремяПогодаТемператураВлажностьДавлениеВетер, м/сВероятность осадков
    00:00Ясно и безоблачно+13°C54 %760 мм2.9 м/с2 %
    03:00Ясно и безоблачно+12°C66 %760 мм2.0 м/с2 %
    06:00Ясно и безоблачно+14°C60 %761 мм1.9 м/с2 %
    09:00Ясно и безоблачно+24°C35 %761 мм1.6 м/с2 %
    12:00Ясно и безоблачно+28°C23 %760 мм4.5 м/с2 %
    15:00Ясно и безоблачно+28°C24 %760 мм4.4 м/с2 %
    18:00Ясно и безоблачно+26°C26 %759 мм3.5 м/с2 %
    21:00Ясно и безоблачно+20°C40 %760 мм5.0 м/с2 %
  • 24мая
    Пятница
    +11°
    +24°
    Ясно и безоблачно
    ВремяПогодаТемператураВлажностьДавлениеВетер, м/сВероятность осадков
    00:00Ясно и безоблачно+17°C55 %761 мм5.8 м/с2 %
    03:00Ясно и безоблачно+16°C67 %762 мм6.2 м/с2 %
    06:00Практически безоблачно+16°C54 %763 мм7.7 м/с2 %
    09:00Ясно и безоблачно+19°C36 %764 мм8.3 м/с2 %
    12:00Ясно и безоблачно+23°C30 %765 мм8.6 м/с2 %
    15:00Ясно и безоблачно+24°C24 %765 мм8.3 м/с2 %
    18:00Ясно и безоблачно+22°C20 %765 мм8.4 м/с2 %
    21:00Ясно и безоблачно+17°C26 %767 мм7.3 м/с2 %
  • 25мая
    Суббота
    +12°
    +23°
    Ясно и безоблачно
    ВремяПогодаТемператураВлажностьДавлениеВетер, м/сВероятность осадков
    00:00Ясно и безоблачно+15°C32 %767 мм7.1 м/с2 %
    03:00Ясно и безоблачно+12°C38 %767 мм6.6 м/с2 %
    06:00Ясно и безоблачно+13°C41 %768 мм6.3 м/с2 %
    09:00Ясно и безоблачно+18°C32 %768 мм7.8 м/с2 %
    12:00Ясно и безоблачно+21°C24 %768 мм8.2 м/с2 %
    15:00Ясно и безоблачно+23°C19 %767 мм8.1 м/с2 %
    18:00Ясно и безоблачно+22°C21 %766 мм7.7 м/с2 %
    21:00Облачно с прояснениями+17°C31 %766 мм6.1 м/с2 %
  • 26мая
    Воскресенье
    +14°
    +23°
    Облачно с прояснениями
    ВремяПогодаТемператураВлажностьДавлениеВетер, м/сВероятность осадков
    00:00Пасмурно, сплошная облачность+16°C33 %766 мм5.4 м/с2 %
    03:00Облачно с прояснениями+13°C36 %765 мм4.2 м/с2 %
    06:00Облачно с прояснениями+14°C43 %765 мм5.1 м/с2 %
    09:00Облачно с прояснениями+17°C36 %765 мм5.8 м/с4 %
    12:00Облачно с прояснениями+19°C31 %765 мм6.7 м/с5 %
    15:00Облачно с прояснениями+21°C24 %763 мм7.0 м/с4 %
    18:00Облачно с прояснениями+22°C27 %763 мм4.9 м/с20 %
    21:00Пасмурно, сплошная облачность+20°C22 %763 мм6.4 м/с12 %
Мы используем cookies
Соглашаюсь